Time;durP1;ratioP1;P1;durP2;ratioP2;P2;SDS_P1;SDS_P2;PMS_P1;PMS_P2;Temp;Humidity;BMP_temperature;BMP_pressure;BME280_temperature;BME280_humidity;BME280_pressure;Samples;Min_cycle;Max_cycle;Signal;HPM_P1;HPM_P2
2022/01/21 00:01:50;;;;;;;24.65;7.13;;;;;;;;;;5101844;28;20127;-65
2022/01/21 00:04:16;;;;;;;18.15;7.00;;;;;;;;;;5095135;28;20036;-65
2022/01/21 00:06:42;;;;;;;17.83;6.68;;;;;;;;;;5107021;28;20462;-65
2022/01/21 00:09:08;;;;;;;48.22;23.02;;;;;;;;;;5114529;28;20114;-65
2022/01/21 00:11:36;;;;;;;19.05;7.20;;;;;;;;;;5112312;28;20512;-65
2022/01/21 00:14:02;;;;;;;19.50;5.53;;;;;;;;;;5093173;28;20545;-66
2022/01/21 00:16:29;;;;;;;13.88;4.90;;;;;;;;;;5103901;28;20047;-65
2022/01/21 00:19:04;;;;;;;67.18;27.73;;;;;;;;;;5112346;28;20036;-66
2022/01/21 00:32:30;;;;;;;112.72;55.35;;;;;;;;;;5104311;28;20057;-65
2022/01/21 00:34:56;;;;;;;180.35;84.47;;;;;;;;;;5108730;27;20044;-66
2022/01/21 00:37:23;;;;;;;143.52;64.32;;;;;;;;;;5105153;28;20031;-66
2022/01/21 00:39:55;;;;;;;323.10;151.38;;;;;;;;;;5106037;28;20090;-65
2022/01/21 00:44:48;;;;;;;27.23;11.95;;;;;;;;;;5093931;28;20131;-66
2022/01/21 00:47:15;;;;;;;34.15;11.80;;;;;;;;;;5104740;28;20032;-66
2022/01/21 00:49:41;;;;;;;19.80;4.75;;;;;;;;;;5111490;28;20035;-66
2022/01/21 00:52:07;;;;;;;20.55;7.40;;;;;;;;;;5113067;28;20044;-66
2022/01/21 00:54:34;;;;;;;13.00;3.17;;;;;;;;;;5103639;28;20036;-66
2022/01/21 00:56:59;;;;;;;25.13;5.85;;;;;;;;;;5094822;28;20097;-66
2022/01/21 00:59:26;;;;;;;14.55;2.90;;;;;;;;;;5106150;28;20063;-66
2022/01/21 01:01:53;;;;;;;19.13;3.17;;;;;;;;;;5102131;28;20379;-66
2022/01/21 01:04:19;;;;;;;17.98;3.22;;;;;;;;;;5099063;28;20047;-66
2022/01/21 01:06:45;;;;;;;20.00;2.72;;;;;;;;;;5103687;28;20043;-66
2022/01/21 01:09:11;;;;;;;12.77;2.95;;;;;;;;;;5105880;28;20069;-66
2022/01/21 01:22:19;;;;;;;13.73;2.53;;;;;;;;;;5105364;22;20044;-70
2022/01/21 01:29:57;;;;;;;12.32;2.30;;;;;;;;;;5092220;28;20046;-70
2022/01/21 01:32:25;;;;;;;10.45;2.40;;;;;;;;;;5081175;28;20040;-70
2022/01/21 01:34:52;;;;;;;8.13;2.15;;;;;;;;;;5068872;28;20037;-70
2022/01/21 01:50:55;;;;;;;9.70;2.05;;;;;;;;;;5071351;28;20083;-70
2022/01/21 01:53:24;;;;;;;17.75;2.25;;;;;;;;;;5071533;28;20489;-70
2022/01/21 01:55:50;;;;;;;12.00;2.20;;;;;;;;;;5064691;28;20398;-70
2022/01/21 01:58:16;;;;;;;12.88;2.60;;;;;;;;;;5068989;28;20044;-70
2022/01/21 02:00:43;;;;;;;10.18;2.35;;;;;;;;;;5061662;28;20077;-70
2022/01/21 02:03:10;;;;;;;14.68;1.88;;;;;;;;;;5051435;28;20049;-70
2022/01/21 02:05:36;;;;;;;11.02;1.98;;;;;;;;;;5058086;28;20421;-70
2022/01/21 02:08:03;;;;;;;18.58;2.80;;;;;;;;;;5070685;28;20125;-70
2022/01/21 02:10:29;;;;;;;11.98;1.80;;;;;;;;;;5070427;28;20037;-70
2022/01/21 02:13:05;;;;;;;10.13;2.00;;;;;;;;;;5070437;28;20059;-70
2022/01/21 02:15:34;;;;;;;14.18;2.10;;;;;;;;;;5060408;28;20037;-70
2022/01/21 02:23:29;;;;;;;9.50;1.70;;;;;;;;;;5078152;28;20055;-70
2022/01/21 02:25:55;;;;;;;10.50;1.52;;;;;;;;;;5071003;28;20054;-70
2022/01/21 02:28:21;;;;;;;14.95;1.70;;;;;;;;;;5077276;28;20028;-70
2022/01/21 02:30:56;;;;;;;11.13;1.92;;;;;;;;;;5078051;28;20121;-71
2022/01/21 02:33:23;;;;;;;11.52;1.75;;;;;;;;;;5076859;28;20521;-70
2022/01/21 02:35:49;;;;;;;9.57;1.45;;;;;;;;;;5070860;28;20037;-70
2022/01/21 02:38:15;;;;;;;9.30;1.88;;;;;;;;;;5077599;28;20033;-70
2022/01/21 02:40:42;;;;;;;10.43;1.75;;;;;;;;;;5076781;28;20116;-70
2022/01/21 02:43:08;;;;;;;11.63;1.60;;;;;;;;;;5078012;28;20044;-70
2022/01/21 02:45:36;;;;;;;8.52;1.63;;;;;;;;;;5076070;28;20076;-70
2022/01/21 02:48:04;;;;;;;13.38;1.77;;;;;;;;;;5077619;28;20115;-70
2022/01/21 02:50:30;;;;;;;11.20;2.17;;;;;;;;;;5074547;28;20044;-71
2022/01/21 02:53:09;;;;;;;13.40;1.80;;;;;;;;;;5076915;28;20051;-70
2022/01/21 02:55:36;;;;;;;11.70;1.48;;;;;;;;;;5070074;28;20048;-70
2022/01/21 02:58:02;;;;;;;7.22;1.90;;;;;;;;;;5066604;28;20493;-70
2022/01/21 03:00:27;;;;;;;10.98;1.80;;;;;;;;;;5075553;28;20059;-70
2022/01/21 03:02:54;;;;;;;6.82;1.33;;;;;;;;;;5076353;28;20132;-70
2022/01/21 03:05:20;;;;;;;9.63;1.73;;;;;;;;;;5071826;28;20032;-70
2022/01/21 03:07:47;;;;;;;8.38;1.30;;;;;;;;;;5076318;28;20793;-70
2022/01/21 03:10:15;;;;;;;10.70;1.40;;;;;;;;;;5076349;28;20043;-70
2022/01/21 03:12:41;;;;;;;4.88;1.35;;;;;;;;;;5077382;28;20032;-71
2022/01/21 03:15:07;;;;;;;10.63;1.50;;;;;;;;;;5073112;28;20033;-71
2022/01/21 03:17:33;;;;;;;9.82;1.55;;;;;;;;;;5078072;28;20036;-71
2022/01/21 03:20:00;;;;;;;10.13;1.48;;;;;;;;;;5077176;28;20037;-71
2022/01/21 03:22:26;;;;;;;6.30;1.30;;;;;;;;;;5077030;28;20036;-70
2022/01/21 03:24:52;;;;;;;4.57;1.52;;;;;;;;;;5075463;28;20051;-70
2022/01/21 03:27:18;;;;;;;9.45;1.50;;;;;;;;;;5072781;28;20532;-71
2022/01/21 03:29:44;;;;;;;6.05;1.27;;;;;;;;;;5072481;28;20501;-71
2022/01/21 03:32:10;;;;;;;5.15;1.08;;;;;;;;;;5073920;28;20567;-71
2022/01/21 03:34:36;;;;;;;5.10;1.10;;;;;;;;;;5072833;28;20032;-71
2022/01/21 03:37:03;;;;;;;5.93;1.33;;;;;;;;;;5049192;28;20173;-71
2022/01/21 03:39:29;;;;;;;4.65;1.50;;;;;;;;;;5073709;28;20044;-71
2022/01/21 03:41:55;;;;;;;6.63;1.63;;;;;;;;;;5073988;28;20041;-71
2022/01/21 03:44:21;;;;;;;10.88;1.52;;;;;;;;;;5072610;28;20098;-70
2022/01/21 03:46:47;;;;;;;8.13;1.45;;;;;;;;;;5067001;28;20037;-71
2022/01/21 03:49:13;;;;;;;8.93;1.60;;;;;;;;;;5072905;28;20040;-71
2022/01/21 03:51:39;;;;;;;7.45;1.00;;;;;;;;;;5073829;28;20044;-70
2022/01/21 03:54:05;;;;;;;6.05;1.08;;;;;;;;;;5073600;28;20055;-70
2022/01/21 03:56:31;;;;;;;7.00;1.50;;;;;;;;;;5060850;28;20029;-70
2022/01/21 03:58:57;;;;;;;8.80;1.92;;;;;;;;;;5073229;28;20028;-71
2022/01/21 04:01:24;;;;;;;7.32;1.25;;;;;;;;;;5073854;28;20068;-70
2022/01/21 04:03:51;;;;;;;12.35;1.40;;;;;;;;;;5072212;28;20094;-70
2022/01/21 04:06:17;;;;;;;3.45;1.13;;;;;;;;;;5068131;28;20115;-71
2022/01/21 04:08:43;;;;;;;10.45;1.90;;;;;;;;;;5068309;28;20466;-71
2022/01/21 04:11:09;;;;;;;10.10;1.33;;;;;;;;;;5073110;28;20082;-70
2022/01/21 04:13:35;;;;;;;6.80;1.35;;;;;;;;;;5073549;28;20082;-70
2022/01/21 04:16:01;;;;;;;6.40;1.30;;;;;;;;;;5047544;28;20478;-71
2022/01/21 04:18:27;;;;;;;8.90;1.40;;;;;;;;;;5072410;28;20032;-70
2022/01/21 04:20:53;;;;;;;9.07;1.77;;;;;;;;;;5073291;28;20040;-70
2022/01/21 04:23:20;;;;;;;4.43;0.98;;;;;;;;;;5073006;28;20059;-70
2022/01/21 04:25:47;;;;;;;7.30;1.17;;;;;;;;;;5066207;28;20036;-70
2022/01/21 04:28:13;;;;;;;8.60;1.40;;;;;;;;;;5072240;28;20048;-70
2022/01/21 04:30:39;;;;;;;7.35;1.40;;;;;;;;;;5073253;28;20443;-70
2022/01/21 04:33:06;;;;;;;6.93;1.55;;;;;;;;;;5074853;28;20033;-70
2022/01/21 04:35:33;;;;;;;7.25;1.80;;;;;;;;;;5065632;28;20028;-70
2022/01/21 04:38:03;;;;;;;5.22;1.45;;;;;;;;;;5064589;28;20032;-70
2022/01/21 04:40:33;;;;;;;9.25;1.50;;;;;;;;;;5081748;28;20074;-70
2022/01/21 04:48:30;;;;;;;6.63;1.20;;;;;;;;;;5067852;28;20119;-70
2022/01/21 04:50:59;;;;;;;8.73;1.45;;;;;;;;;;5072477;28;20445;-70
2022/01/21 04:53:26;;;;;;;13.50;1.60;;;;;;;;;;5072465;28;20037;-71
2022/01/21 04:55:53;;;;;;;11.35;1.50;;;;;;;;;;5064096;28;20059;-70
2022/01/21 04:58:19;;;;;;;11.55;1.65;;;;;;;;;;5067061;28;20041;-70
2022/01/21 05:00:45;;;;;;;10.40;1.45;;;;;;;;;;5070157;28;20036;-70
2022/01/21 05:03:12;;;;;;;8.52;1.40;;;;;;;;;;5066644;28;20043;-70
2022/01/21 05:05:38;;;;;;;5.68;1.45;;;;;;;;;;5068022;28;20040;-70
2022/01/21 05:08:07;;;;;;;5.65;1.85;;;;;;;;;;5064435;28;20029;-69
2022/01/21 05:10:35;;;;;;;8.27;1.70;;;;;;;;;;5064935;28;20044;-69
2022/01/21 05:13:01;;;;;;;8.43;1.60;;;;;;;;;;5071964;28;20498;-69
2022/01/21 05:15:58;;;;;;;10.82;2.35;;;;;;;;;;5064989;28;20116;-69
2022/01/21 05:18:25;;;;;;;19.50;2.25;;;;;;;;;;5066905;28;20033;-69
2022/01/21 05:20:51;;;;;;;10.48;1.65;;;;;;;;;;5068872;28;20039;-69
2022/01/21 05:23:17;;;;;;;8.20;1.60;;;;;;;;;;5071289;28;20443;-69
2022/01/21 05:25:43;;;;;;;9.18;1.60;;;;;;;;;;5066583;28;20029;-68
2022/01/21 05:28:09;;;;;;;10.18;1.65;;;;;;;;;;5072073;28;20050;-69
2022/01/21 05:30:35;;;;;;;13.13;2.40;;;;;;;;;;5070119;28;20051;-69
2022/01/21 05:33:01;;;;;;;11.80;2.20;;;;;;;;;;5070932;28;20036;-69
2022/01/21 05:35:26;;;;;;;12.82;2.03;;;;;;;;;;5064718;28;20025;-69
2022/01/21 05:37:53;;;;;;;12.02;2.10;;;;;;;;;;5070925;28;20086;-69
2022/01/21 05:40:20;;;;;;;14.43;2.28;;;;;;;;;;5071414;28;20080;-69
2022/01/21 05:42:46;;;;;;;13.25;1.88;;;;;;;;;;5071827;28;20534;-69
2022/01/21 05:47:57;;;;;;;12.25;1.95;;;;;;;;;;5071280;28;20047;-69
2022/01/21 05:50:23;;;;;;;14.30;2.17;;;;;;;;;;5071489;28;20033;-68
2022/01/21 05:52:49;;;;;;;12.52;2.00;;;;;;;;;;5070943;28;20063;-68
2022/01/21 05:55:16;;;;;;;10.80;1.88;;;;;;;;;;5065497;28;20033;-68
2022/01/21 05:57:42;;;;;;;8.75;1.70;;;;;;;;;;5069177;28;20043;-69
2022/01/21 06:00:09;;;;;;;9.50;1.70;;;;;;;;;;5071677;28;20123;-68
2022/01/21 06:02:36;;;;;;;7.50;1.50;;;;;;;;;;5071005;28;20091;-68
2022/01/21 06:05:02;;;;;;;9.70;1.88;;;;;;;;;;5068107;28;20043;-69
2022/01/21 06:07:28;;;;;;;5.70;1.63;;;;;;;;;;5070428;28;20068;-68
2022/01/21 06:09:54;;;;;;;11.15;1.75;;;;;;;;;;5071236;28;20133;-68
2022/01/21 06:12:20;;;;;;;12.10;1.98;;;;;;;;;;5070831;28;20040;-69
2022/01/21 06:14:46;;;;;;;12.52;1.75;;;;;;;;;;5070055;28;20068;-69
2022/01/21 06:17:13;;;;;;;9.20;1.67;;;;;;;;;;5064693;28;20113;-69
2022/01/21 06:19:39;;;;;;;11.38;1.90;;;;;;;;;;5070796;28;20040;-68
2022/01/21 06:22:05;;;;;;;6.55;1.52;;;;;;;;;;5071336;28;20458;-68
2022/01/21 06:24:31;;;;;;;14.70;1.85;;;;;;;;;;5069278;28;20541;-68
2022/01/21 06:27:01;;;;;;;10.10;1.83;;;;;;;;;;5050491;28;20040;-69
2022/01/21 06:29:27;;;;;;;14.15;2.03;;;;;;;;;;5071409;28;20040;-68
2022/01/21 06:31:53;;;;;;;9.05;1.60;;;;;;;;;;5070653;28;20115;-68
2022/01/21 06:34:19;;;;;;;10.02;1.73;;;;;;;;;;5069882;28;20115;-68
2022/01/21 06:36:45;;;;;;;8.48;1.60;;;;;;;;;;5058637;28;20054;-69
2022/01/21 06:39:11;;;;;;;7.95;2.03;;;;;;;;;;5060792;28;20131;-68
2022/01/21 06:41:37;;;;;;;10.02;2.13;;;;;;;;;;5070333;28;20051;-68
2022/01/21 06:44:04;;;;;;;9.93;2.05;;;;;;;;;;5070295;28;20064;-69
2022/01/21 06:46:30;;;;;;;12.15;2.50;;;;;;;;;;5069789;28;20504;-68
2022/01/21 06:48:56;;;;;;;13.13;2.50;;;;;;;;;;5070686;28;20036;-69
2022/01/21 06:51:22;;;;;;;8.32;2.67;;;;;;;;;;5068093;28;20093;-69
2022/01/21 06:53:48;;;;;;;14.10;2.50;;;;;;;;;;5068392;28;20068;-69
2022/01/21 06:56:14;;;;;;;12.25;2.55;;;;;;;;;;5067269;28;20131;-69
2022/01/21 06:58:40;;;;;;;12.30;2.95;;;;;;;;;;5069858;28;20029;-69
2022/01/21 07:01:06;;;;;;;12.52;2.72;;;;;;;;;;5070205;28;20044;-69
2022/01/21 07:03:32;;;;;;;12.05;3.40;;;;;;;;;;5072318;28;20075;-69
2022/01/21 07:05:59;;;;;;;11.30;1.88;;;;;;;;;;5062739;28;20425;-69
2022/01/21 07:08:27;;;;;;;8.90;1.58;;;;;;;;;;5071411;28;20524;-69
2022/01/21 07:10:53;;;;;;;11.98;1.90;;;;;;;;;;5071832;28;20123;-69
2022/01/21 07:13:19;;;;;;;8.93;1.85;;;;;;;;;;5083678;28;20162;-69
2022/01/21 07:15:45;;;;;;;8.95;1.63;;;;;;;;;;5066537;28;20024;-69
2022/01/21 07:18:11;;;;;;;11.57;1.70;;;;;;;;;;5067536;28;20024;-69
2022/01/21 07:20:37;;;;;;;15.05;2.85;;;;;;;;;;5074014;28;20505;-69
2022/01/21 07:23:03;;;;;;;6.35;1.60;;;;;;;;;;5076528;22;20040;-67
2022/01/21 07:25:29;;;;;;;13.52;1.83;;;;;;;;;;5043782;28;20433;-66
2022/01/21 07:27:55;;;;;;;7.13;1.52;;;;;;;;;;5049965;28;20037;-66
2022/01/21 07:30:21;;;;;;;10.38;1.33;;;;;;;;;;5046636;28;20040;-66
2022/01/21 07:32:47;;;;;;;8.60;1.30;;;;;;;;;;5050684;28;20045;-66
2022/01/21 07:35:14;;;;;;;9.38;1.50;;;;;;;;;;5048741;28;20047;-68
2022/01/21 07:37:41;;;;;;;7.60;1.52;;;;;;;;;;5051710;28;20115;-68
2022/01/21 07:40:07;;;;;;;6.70;1.45;;;;;;;;;;5048144;28;20033;-67
2022/01/21 07:42:33;;;;;;;10.10;1.70;;;;;;;;;;5052658;28;20533;-67
2022/01/21 07:44:59;;;;;;;9.60;1.40;;;;;;;;;;5046366;28;20064;-67
2022/01/21 07:47:25;;;;;;;8.70;2.13;;;;;;;;;;5048843;28;20488;-67
2022/01/21 07:49:51;;;;;;;9.32;2.10;;;;;;;;;;5042909;28;20116;-68
2022/01/21 07:52:18;;;;;;;7.03;1.48;;;;;;;;;;5049594;28;20528;-67
2022/01/21 07:54:44;;;;;;;10.63;1.88;;;;;;;;;;5049487;28;20371;-67
2022/01/21 07:57:10;;;;;;;8.60;2.05;;;;;;;;;;5054561;28;20112;-67
2022/01/21 07:59:36;;;;;;;6.35;1.10;;;;;;;;;;5049035;28;20494;-67
2022/01/21 08:02:03;;;;;;;8.40;1.58;;;;;;;;;;5049266;28;20120;-67
2022/01/21 08:04:29;;;;;;;8.30;1.80;;;;;;;;;;5046212;28;20544;-67
2022/01/21 08:06:55;;;;;;;8.23;1.60;;;;;;;;;;5043762;28;20498;-67
2022/01/21 08:09:24;;;;;;;11.73;1.58;;;;;;;;;;5049807;28;20040;-67
2022/01/21 08:11:53;;;;;;;10.77;1.75;;;;;;;;;;5049884;28;20051;-67
2022/01/21 08:14:20;;;;;;;12.70;1.65;;;;;;;;;;5051743;28;20037;-67
2022/01/21 08:16:46;;;;;;;6.60;2.00;;;;;;;;;;5058011;28;20036;-67
2022/01/21 08:19:13;;;;;;;11.35;1.80;;;;;;;;;;5047275;28;20464;-67
2022/01/21 08:21:39;;;;;;;11.20;1.85;;;;;;;;;;5050999;28;20123;-67
2022/01/21 08:24:06;;;;;;;9.38;1.80;;;;;;;;;;5046446;28;20038;-67
2022/01/21 08:26:33;;;;;;;11.75;2.10;;;;;;;;;;5055262;28;20044;-67
2022/01/21 08:28:59;;;;;;;10.88;1.67;;;;;;;;;;5048179;28;20048;-67
2022/01/21 08:31:25;;;;;;;12.60;1.70;;;;;;;;;;5047954;28;20451;-67
2022/01/21 08:33:52;;;;;;;11.35;2.10;;;;;;;;;;5051009;28;20045;-67
2022/01/21 08:36:19;;;;;;;9.52;1.50;;;;;;;;;;5047913;28;20175;-66
2022/01/21 08:38:45;;;;;;;11.90;1.80;;;;;;;;;;5051296;28;20096;-66
2022/01/21 08:41:11;;;;;;;9.60;1.60;;;;;;;;;;5049468;28;20033;-66
2022/01/21 08:43:37;;;;;;;11.25;1.95;;;;;;;;;;5050245;28;20116;-71
2022/01/21 08:46:03;;;;;;;8.32;1.67;;;;;;;;;;5051574;28;20040;-72
2022/01/21 08:48:29;;;;;;;10.10;1.77;;;;;;;;;;5050625;28;20044;-72
2022/01/21 08:50:57;;;;;;;14.68;1.90;;;;;;;;;;5047581;28;20621;-72
2022/01/21 08:53:38;;;;;;;6.40;1.80;;;;;;;;;;5044927;28;20041;-71
2022/01/21 08:56:04;;;;;;;;;;;;;;;;;;5048737;28;20041;-70
2022/01/21 08:58:30;;;;;;;10.40;2.13;;;;;;;;;;5050676;28;19940;-70
2022/01/21 09:00:57;;;;;;;13.88;1.77;;;;;;;;;;5048274;28;20039;-71
2022/01/21 09:03:22;;;;;;;12.45;2.05;;;;;;;;;;5049512;28;20079;-70
2022/01/21 09:05:49;;;;;;;8.70;1.88;;;;;;;;;;5048549;28;20033;-70
2022/01/21 09:08:16;;;;;;;6.25;1.60;;;;;;;;;;5040243;28;20037;-70
2022/01/21 09:10:42;;;;;;;8.35;1.45;;;;;;;;;;5041055;28;20462;-69
2022/01/21 09:13:08;;;;;;;16.05;1.80;;;;;;;;;;5040106;28;20047;-71
2022/01/21 09:15:35;;;;;;;10.32;2.08;;;;;;;;;;5042824;28;20075;-70
2022/01/21 09:18:04;;;;;;;12.23;2.00;;;;;;;;;;5043734;28;20041;-70
2022/01/21 09:20:31;;;;;;;7.95;1.77;;;;;;;;;;5051742;28;20060;-70
2022/01/21 09:22:57;;;;;;;8.65;2.08;;;;;;;;;;5047574;28;20037;-70
2022/01/21 09:25:22;;;;;;;11.80;1.63;;;;;;;;;;5045276;28;20086;-70
2022/01/21 09:27:48;;;;;;;11.77;2.13;;;;;;;;;;5048462;28;20039;-72
2022/01/21 09:30:14;;;;;;;10.25;1.55;;;;;;;;;;5044929;28;20445;-71
2022/01/21 09:32:40;;;;;;;12.18;2.33;;;;;;;;;;5040260;28;20037;-71
2022/01/21 09:35:07;;;;;;;12.90;2.00;;;;;;;;;;5049804;28;20029;-71
2022/01/21 09:37:33;;;;;;;13.90;2.55;;;;;;;;;;5049488;28;20033;-71
2022/01/21 09:39:59;;;;;;;14.85;2.33;;;;;;;;;;5050313;28;20044;-73
2022/01/21 09:42:25;;;;;;;13.88;2.42;;;;;;;;;;5046860;28;20068;-73
2022/01/21 09:44:52;;;;;;;12.05;2.10;;;;;;;;;;5047508;28;20036;-73
2022/01/21 09:47:19;;;;;;;10.98;2.20;;;;;;;;;;5048820;28;20037;-72
2022/01/21 09:49:46;;;;;;;12.45;2.08;;;;;;;;;;5049159;28;20079;-73
2022/01/21 09:52:13;;;;;;;17.02;2.53;;;;;;;;;;5045260;28;20041;-73
2022/01/21 09:54:45;;;;;;;14.43;2.53;;;;;;;;;;5048320;28;20545;-74
2022/01/21 09:57:15;;;;;;;16.13;2.47;;;;;;;;;;5046799;28;20037;-72
2022/01/21 09:59:41;;;;;;;11.40;2.35;;;;;;;;;;5041702;28;20045;-76
2022/01/21 10:02:09;;;;;;;11.40;2.40;;;;;;;;;;5041288;28;20032;-70
2022/01/21 10:04:36;;;;;;;18.52;3.40;;;;;;;;;;5046025;28;20040;-70
2022/01/21 10:07:03;;;;;;;19.45;2.58;;;;;;;;;;5047411;28;20116;-70
2022/01/21 10:09:29;;;;;;;13.10;2.40;;;;;;;;;;5043219;28;20041;-70
2022/01/21 10:11:56;;;;;;;12.77;2.30;;;;;;;;;;5046860;28;20517;-70
2022/01/21 10:14:24;;;;;;;11.75;2.20;;;;;;;;;;5049119;28;20037;-70
2022/01/21 10:16:50;;;;;;;15.60;2.13;;;;;;;;;;5047173;28;20483;-70
2022/01/21 10:19:27;;;;;;;15.73;2.22;;;;;;;;;;5051824;28;20076;-70
2022/01/21 10:21:59;;;;;;;14.85;2.30;;;;;;;;;;5049708;28;20063;-69
2022/01/21 10:24:25;;;;;;;18.10;2.40;;;;;;;;;;5049622;28;20628;-70
2022/01/21 10:26:52;;;;;;;14.75;2.60;;;;;;;;;;5056027;28;20052;-69
2022/01/21 10:29:19;;;;;;;8.32;2.22;;;;;;;;;;5044938;28;20410;-69
2022/01/21 10:32:06;;;;;;;14.10;2.75;;;;;;;;;;5043767;28;20041;-70
2022/01/21 10:34:42;;;;;;;14.70;2.53;;;;;;;;;;5048461;28;20502;-71
2022/01/21 10:37:21;;;;;;;10.05;1.98;;;;;;;;;;5050393;28;20033;-72
2022/01/21 10:39:56;;;;;;;9.82;2.55;;;;;;;;;;5053685;28;20123;-68
2022/01/21 10:42:23;;;;;;;15.07;2.10;;;;;;;;;;5047116;28;20041;-69
2022/01/21 10:44:50;;;;;;;7.50;2.00;;;;;;;;;;5049548;28;20032;-70
2022/01/21 10:47:16;;;;;;;16.08;3.28;;;;;;;;;;5050745;28;20037;-70
2022/01/21 10:49:43;;;;;;;10.82;1.85;;;;;;;;;;5049459;28;20072;-70
2022/01/21 10:52:10;;;;;;;16.08;2.03;;;;;;;;;;5051144;28;20041;-70
2022/01/21 10:54:43;;;;;;;10.88;1.92;;;;;;;;;;5053688;28;20045;-70
2022/01/21 10:57:16;;;;;;;10.15;2.13;;;;;;;;;;5051035;28;20040;-69
2022/01/21 10:59:49;;;;;;;14.07;2.47;;;;;;;;;;5054421;28;20490;-70
2022/01/21 11:02:15;;;;;;;9.27;1.52;;;;;;;;;;5053027;28;20047;-70
2022/01/21 11:04:42;;;;;;;11.10;1.88;;;;;;;;;;5045859;28;20063;-69
2022/01/21 11:07:08;;;;;;;12.25;2.00;;;;;;;;;;5050313;28;20104;-69
2022/01/21 11:09:37;;;;;;;12.60;1.85;;;;;;;;;;5054912;28;20044;-69
2022/01/21 11:12:16;;;;;;;12.73;2.60;;;;;;;;;;5049801;28;20116;-70
2022/01/21 11:14:59;;;;;;;18.27;2.28;;;;;;;;;;5049544;28;20044;-70
2022/01/21 11:17:25;;;;;;;9.60;2.28;;;;;;;;;;5056526;28;20028;-69
2022/01/21 11:20:06;;;;;;;10.45;2.10;;;;;;;;;;5055386;28;20037;-70
2022/01/21 11:22:32;;;;;;;18.75;3.13;;;;;;;;;;5051442;28;20190;-69
2022/01/21 11:24:59;;;;;;;16.45;2.95;;;;;;;;;;5051180;28;20068;-70
2022/01/21 11:27:25;;;;;;;9.63;2.28;;;;;;;;;;5052141;28;20033;-70
2022/01/21 11:29:53;;;;;;;12.85;2.30;;;;;;;;;;5049043;28;20048;-70
2022/01/21 11:32:19;;;;;;;15.43;2.75;;;;;;;;;;5054180;28;20056;-70
2022/01/21 11:34:45;;;;;;;15.77;2.20;;;;;;;;;;5052618;28;20116;-71
2022/01/21 11:37:12;;;;;;;13.00;2.58;;;;;;;;;;5045435;28;20099;-70
2022/01/21 11:39:38;;;;;;;15.27;2.40;;;;;;;;;;5048665;28;20044;-70
2022/01/21 11:42:05;;;;;;;14.25;2.80;;;;;;;;;;5046260;28;20104;-70
2022/01/21 11:44:33;;;;;;;10.40;2.38;;;;;;;;;;5053190;28;20045;-70
2022/01/21 11:47:15;;;;;;;11.95;2.20;;;;;;;;;;5053615;28;20537;-70
2022/01/21 11:49:54;;;;;;;16.02;2.97;;;;;;;;;;5050220;28;20037;-69
2022/01/21 11:52:20;;;;;;;12.23;2.20;;;;;;;;;;5046343;28;20403;-70
2022/01/21 11:54:48;;;;;;;20.58;3.35;;;;;;;;;;5048069;28;20083;-70
2022/01/21 11:57:15;;;;;;;16.15;3.30;;;;;;;;;;5053844;28;20032;-69
2022/01/21 11:59:59;;;;;;;15.57;2.95;;;;;;;;;;5053405;28;20065;-69
2022/01/21 12:02:29;;;;;;;16.30;2.63;;;;;;;;;;5053633;28;20047;-69
2022/01/21 12:04:56;;;;;;;12.20;2.57;;;;;;;;;;5050758;28;20033;-69
2022/01/21 12:07:34;;;;;;;21.95;3.30;;;;;;;;;;5043729;28;20047;-70
2022/01/21 12:10:10;;;;;;;16.85;3.35;;;;;;;;;;5052396;28;20526;-70
2022/01/21 12:12:50;;;;;;;19.30;2.92;;;;;;;;;;5057754;28;20457;-70
2022/01/21 12:18:18;;;;;;;20.13;3.45;;;;;;;;;;5051554;28;20486;-70
2022/01/21 12:20:44;;;;;;;15.30;2.65;;;;;;;;;;5052631;28;20043;-69
2022/01/21 12:23:14;;;;;;;19.65;3.08;;;;;;;;;;5053129;28;20048;-70
2022/01/21 12:25:59;;;;;;;18.08;3.38;;;;;;;;;;5055753;28;20078;-70
2022/01/21 12:28:25;;;;;;;15.95;2.95;;;;;;;;;;5045524;28;20049;-69
2022/01/21 12:30:54;;;;;;;17.25;2.60;;;;;;;;;;5050512;28;20502;-69
2022/01/21 12:33:20;;;;;;;14.93;2.83;;;;;;;;;;5052145;28;20056;-69
2022/01/21 12:35:47;;;;;;;13.32;2.88;;;;;;;;;;5054120;28;20072;-70
2022/01/21 12:40:53;;;;;;;14.48;2.47;;;;;;;;;;5051190;28;20080;-70
2022/01/21 12:43:52;;;;;;;9.90;1.95;;;;;;;;;;5052263;28;20041;-70
2022/01/21 12:46:18;;;;;;;13.32;2.72;;;;;;;;;;5030178;28;20120;-70
2022/01/21 12:48:45;;;;;;;14.70;2.58;;;;;;;;;;5051129;28;20459;-69
2022/01/21 12:51:18;;;;;;;12.02;2.20;;;;;;;;;;5050206;28;20116;-69
2022/01/21 12:56:43;;;;;;;9.55;1.85;;;;;;;;;;5057491;28;20091;-70
2022/01/21 12:59:15;;;;;;;12.93;1.92;;;;;;;;;;5051464;28;20123;-70
2022/01/21 13:01:42;;;;;;;10.95;1.77;;;;;;;;;;5051696;28;20045;-69
2022/01/21 13:04:12;;;;;;;7.80;1.65;;;;;;;;;;5049975;28;20120;-70
2022/01/21 13:06:42;;;;;;;13.55;2.35;;;;;;;;;;5049775;28;20040;-69
2022/01/21 13:09:13;;;;;;;9.38;1.98;;;;;;;;;;5051507;28;20056;-69
2022/01/21 13:11:52;;;;;;;9.23;1.88;;;;;;;;;;5048669;28;20052;-70
2022/01/21 13:17:02;;;;;;;8.65;2.10;;;;;;;;;;5057679;28;20116;-70
2022/01/21 13:19:29;;;;;;;8.18;1.55;;;;;;;;;;5051730;28;20040;-70
2022/01/21 13:24:31;;;;;;;9.80;1.30;;;;;;;;;;5067449;28;20104;-69
2022/01/21 13:26:58;;;;;;;9.43;2.15;;;;;;;;;;5072457;28;20505;-69
2022/01/21 13:29:28;;;;;;;10.40;2.28;;;;;;;;;;5071755;28;20045;-69
2022/01/21 13:31:55;;;;;;;10.27;1.73;;;;;;;;;;5072154;28;20106;-69
2022/01/21 13:34:22;;;;;;;8.50;1.70;;;;;;;;;;5064415;28;20425;-69
2022/01/21 13:36:50;;;;;;;10.38;1.60;;;;;;;;;;5062413;28;20051;-70
2022/01/21 13:39:22;;;;;;;13.93;2.10;;;;;;;;;;5062853;28;20040;-69
2022/01/21 13:41:48;;;;;;;9.57;1.80;;;;;;;;;;5071049;28;20089;-69
2022/01/21 13:44:22;;;;;;;12.15;2.65;;;;;;;;;;5070641;28;20634;-70
2022/01/21 13:46:48;;;;;;;14.50;2.13;;;;;;;;;;5071933;28;20150;-69
2022/01/21 13:49:19;;;;;;;12.00;2.08;;;;;;;;;;5058681;28;20124;-69
2022/01/21 13:51:52;;;;;;;14.50;1.95;;;;;;;;;;5062538;28;20134;-68
2022/01/21 13:54:27;;;;;;;17.40;2.38;;;;;;;;;;5068436;28;20036;-68
2022/01/21 13:56:53;;;;;;;12.52;2.13;;;;;;;;;;5073209;28;20032;-68
2022/01/21 13:59:19;;;;;;;17.05;2.85;;;;;;;;;;5066085;28;20039;-68
2022/01/21 14:01:45;;;;;;;17.98;2.55;;;;;;;;;;5055919;28;20045;-68
2022/01/21 14:04:11;;;;;;;12.05;2.05;;;;;;;;;;5070957;28;20086;-68
2022/01/21 14:06:37;;;;;;;14.95;2.50;;;;;;;;;;5065235;28;20451;-68
2022/01/21 14:09:04;;;;;;;11.00;1.92;;;;;;;;;;5062118;28;20055;-68
2022/01/21 14:11:46;;;;;;;12.63;2.33;;;;;;;;;;5070802;28;20079;-68
2022/01/21 14:14:15;;;;;;;15.90;2.60;;;;;;;;;;5069160;28;20097;-68
2022/01/21 14:16:46;;;;;;;15.73;2.85;;;;;;;;;;5076606;28;20044;-68
2022/01/21 14:19:13;;;;;;;17.92;2.65;;;;;;;;;;5063112;28;20402;-68
2022/01/21 14:21:40;;;;;;;11.38;2.17;;;;;;;;;;5071197;28;20131;-68
2022/01/21 14:24:13;;;;;;;10.20;2.58;;;;;;;;;;5069112;28;20072;-68
2022/01/21 14:26:41;;;;;;;11.70;2.35;;;;;;;;;;5073248;28;20047;-68
2022/01/21 14:29:07;;;;;;;15.88;2.63;;;;;;;;;;5069387;28;20036;-68
2022/01/21 14:31:34;;;;;;;15.57;2.70;;;;;;;;;;5067049;28;20044;-68
2022/01/21 14:34:01;;;;;;;9.23;2.28;;;;;;;;;;5062930;28;20032;-68
2022/01/21 14:36:27;;;;;;;18.95;2.47;;;;;;;;;;5061448;28;20036;-69
2022/01/21 14:39:09;;;;;;;13.70;2.33;;;;;;;;;;5067098;28;20049;-69
2022/01/21 14:41:40;;;;;;;21.38;2.58;;;;;;;;;;5062956;28;20414;-69
2022/01/21 14:44:07;;;;;;;12.67;2.30;;;;;;;;;;5069026;28;20369;-68
2022/01/21 14:46:33;;;;;;;17.13;2.72;;;;;;;;;;5074848;28;20514;-69
2022/01/21 14:49:00;;;;;;;17.27;2.65;;;;;;;;;;5070311;28;20048;-69
2022/01/21 14:51:34;;;;;;;16.58;2.13;;;;;;;;;;5070967;28;20041;-69
2022/01/21 14:54:13;;;;;;;11.85;2.33;;;;;;;;;;5069991;28;20033;-68
2022/01/21 14:56:40;;;;;;;16.85;2.75;;;;;;;;;;5062344;28;20043;-69
2022/01/21 14:59:07;;;;;;;14.35;2.13;;;;;;;;;;5066499;28;20052;-69
2022/01/21 15:01:33;;;;;;;15.57;2.72;;;;;;;;;;5070014;28;20040;-69
2022/01/21 15:04:11;;;;;;;15.32;2.85;;;;;;;;;;5064654;28;20059;-69
2022/01/21 15:06:39;;;;;;;11.30;2.10;;;;;;;;;;5060091;28;20045;-69
2022/01/21 15:09:05;;;;;;;12.30;2.08;;;;;;;;;;5064447;28;20410;-69
2022/01/21 15:11:54;;;;;;;42.90;21.23;;;;;;;;;;5068588;28;20130;-69
2022/01/21 15:14:34;;;;;;;15.15;2.53;;;;;;;;;;5061615;28;20102;-68
2022/01/21 15:17:09;;;;;;;19.33;2.50;;;;;;;;;;5069346;28;20044;-68
2022/01/21 15:19:36;;;;;;;14.32;2.53;;;;;;;;;;5064570;28;20165;-68
2022/01/21 15:22:07;;;;;;;25.02;6.88;;;;;;;;;;5070204;28;20055;-69
2022/01/21 15:24:33;;;;;;;18.70;3.30;;;;;;;;;;5068554;28;20553;-68
2022/01/21 15:26:59;;;;;;;14.48;2.47;;;;;;;;;;5067628;28;20123;-68
2022/01/21 15:29:25;;;;;;;13.77;2.90;;;;;;;;;;5074359;28;20059;-68
2022/01/21 15:31:51;;;;;;;15.23;3.38;;;;;;;;;;5071857;28;20043;-68
2022/01/21 15:34:17;;;;;;;20.15;4.53;;;;;;;;;;5071048;28;20036;-68
2022/01/21 15:36:44;;;;;;;15.43;2.53;;;;;;;;;;5063865;28;20040;-68
2022/01/21 15:39:10;;;;;;;14.82;2.50;;;;;;;;;;5072871;28;20458;-68
2022/01/21 15:41:36;;;;;;;15.52;2.55;;;;;;;;;;5062358;28;20044;-68
2022/01/21 15:44:03;;;;;;;15.75;2.92;;;;;;;;;;5073105;28;20036;-68
2022/01/21 15:46:29;;;;;;;16.50;2.30;;;;;;;;;;5072074;28;20036;-68
2022/01/21 15:48:55;;;;;;;18.08;2.72;;;;;;;;;;5071120;28;20131;-68